createdAt,value
2017-06-01T00:00:07.950Z,16.20
2017-06-01T00:02:34.651Z,16.20
2017-06-01T00:05:01.387Z,16.20
2017-06-01T00:07:28.110Z,16.10
2017-06-01T00:09:54.806Z,16.10
2017-06-01T00:12:21.526Z,16.00
2017-06-01T00:14:48.254Z,16.00
2017-06-01T00:17:14.987Z,16.00
2017-06-01T00:19:41.683Z,16.00
2017-06-01T00:22:08.378Z,15.90
2017-06-01T00:24:35.110Z,15.90
2017-06-01T00:27:01.802Z,15.90
2017-06-01T00:29:28.584Z,15.90
2017-06-01T00:31:55.299Z,15.80
2017-06-01T00:34:22.069Z,15.80
2017-06-01T00:36:48.754Z,15.70
2017-06-01T00:39:15.442Z,15.70
2017-06-01T00:41:42.158Z,15.70
2017-06-01T00:44:08.870Z,15.70
2017-06-01T00:46:35.610Z,15.70
2017-06-01T00:49:02.309Z,15.50
2017-06-01T00:51:29.070Z,15.50
2017-06-01T00:53:55.790Z,15.30
2017-06-01T00:56:29.408Z,15.20
2017-06-01T00:58:56.168Z,15.30
2017-06-01T01:01:22.858Z,15.30
2017-06-01T01:03:49.550Z,15.30
2017-06-01T01:06:16.262Z,15.20
2017-06-01T01:08:43.075Z,15.10
2017-06-01T01:11:09.729Z,15.10
2017-06-01T01:13:36.404Z,15.10
2017-06-01T01:16:03.135Z,14.90
2017-06-01T01:18:29.846Z,14.90
2017-06-01T01:20:56.566Z,14.90
2017-06-01T01:23:23.246Z,15.00
2017-06-01T01:25:49.963Z,15.00
2017-06-01T01:28:16.681Z,15.00
2017-06-01T01:30:43.362Z,14.80
2017-06-01T01:33:10.089Z,14.80
2017-06-01T01:35:36.766Z,14.80
2017-06-01T01:38:03.465Z,14.80
2017-06-01T01:40:29.457Z,14.80
2017-06-01T01:42:56.133Z,14.60
2017-06-01T01:45:22.805Z,14.60
2017-06-01T01:47:49.509Z,14.30
2017-06-01T01:50:16.298Z,14.20
2017-06-01T01:52:43.040Z,14.10
2017-06-01T01:55:09.714Z,14.00
2017-06-01T01:57:43.364Z,13.90
2017-06-01T02:00:10.041Z,13.90
2017-06-01T02:02:36.745Z,13.80
2017-06-01T02:05:03.468Z,13.90
2017-06-01T02:07:30.177Z,13.90
2017-06-01T02:09:56.892Z,13.90
2017-06-01T02:12:23.560Z,13.90
2017-06-01T02:14:50.254Z,13.90
2017-06-01T02:17:16.969Z,13.90
2017-06-01T02:19:43.645Z,13.90
2017-06-01T02:22:10.349Z,13.90
2017-06-01T02:24:37.025Z,13.70
2017-06-01T02:27:03.730Z,13.80
2017-06-01T02:29:30.470Z,13.90
2017-06-01T02:31:57.141Z,13.90
2017-06-01T02:34:23.845Z,13.70
2017-06-01T02:36:50.553Z,13.60
2017-06-01T02:39:17.234Z,13.70
2017-06-01T02:41:43.946Z,13.90
2017-06-01T02:44:10.624Z,13.90
2017-06-01T02:46:37.297Z,13.70
2017-06-01T02:49:04.030Z,13.50
2017-06-01T02:51:30.721Z,13.40
2017-06-01T02:53:57.425Z,13.40
2017-06-01T02:56:24.141Z,13.30
2017-06-01T02:58:50.853Z,13.30
2017-06-01T03:01:17.521Z,13.50
2017-06-01T03:03:44.213Z,13.30
2017-06-01T03:06:10.917Z,13.20
2017-06-01T03:08:37.597Z,13.20
2017-06-01T03:11:04.317Z,13.20
2017-06-01T03:13:31.046Z,13.10
2017-06-01T03:15:57.725Z,13.00
2017-06-01T03:18:24.425Z,13.10
2017-06-01T03:20:51.101Z,13.00
2017-06-01T03:23:17.812Z,13.10
2017-06-01T03:25:44.486Z,13.10
2017-06-01T03:28:11.195Z,13.20
2017-06-01T03:30:37.919Z,13.40
2017-06-01T03:33:04.658Z,13.30
2017-06-01T03:35:31.385Z,13.30
2017-06-01T03:37:58.061Z,13.30
2017-06-01T03:40:24.774Z,13.40
2017-06-01T03:42:51.457Z,13.40
2017-06-01T03:45:18.130Z,13.30
2017-06-01T03:47:45.130Z,13.20
2017-06-01T03:50:18.742Z,13.00
2017-06-01T03:52:45.457Z,12.90
2017-06-01T03:55:12.129Z,12.80
2017-06-01T03:57:38.836Z,12.80
2017-06-01T04:00:05.561Z,12.80
2017-06-01T04:02:32.294Z,12.80
2017-06-01T04:04:59.065Z,12.90
2017-06-01T04:07:25.781Z,12.70
2017-06-01T04:09:52.458Z,12.70
2017-06-01T04:12:19.171Z,12.60
2017-06-01T04:14:45.862Z,12.60
2017-06-01T04:17:12.580Z,12.60
2017-06-01T04:19:39.249Z,12.60
2017-06-01T04:22:05.953Z,12.60
2017-06-01T04:24:32.689Z,12.60
2017-06-01T04:26:59.404Z,12.50
2017-06-01T04:29:26.113Z,12.50
2017-06-01T04:31:59.988Z,12.60
2017-06-01T04:34:26.717Z,12.50
2017-06-01T04:36:53.442Z,12.60
2017-06-01T04:39:20.122Z,12.70
2017-06-01T04:41:46.802Z,12.70
2017-06-01T04:44:13.509Z,12.70
2017-06-01T04:46:40.219Z,12.70
2017-06-01T04:49:06.925Z,12.80
2017-06-01T04:51:33.600Z,12.80
2017-06-01T04:54:00.336Z,12.80
2017-06-01T04:56:27.017Z,12.70
2017-06-01T04:58:53.725Z,12.70
2017-06-01T05:01:20.421Z,12.80
2017-06-01T05:03:54.060Z,12.90
2017-06-01T05:06:20.801Z,13.00
2017-06-01T05:08:47.479Z,13.20
2017-06-01T05:11:14.210Z,13.30
2017-06-01T05:13:40.906Z,13.10
2017-06-01T05:16:07.593Z,13.10
2017-06-01T05:18:34.316Z,13.10
2017-06-01T05:21:01.024Z,13.00
2017-06-01T05:23:27.741Z,13.10
2017-06-01T05:25:54.413Z,13.10
2017-06-01T05:28:21.141Z,13.20
2017-06-01T05:30:47.821Z,13.20
2017-06-01T05:33:14.506Z,13.30
2017-06-01T05:35:41.265Z,13.30
2017-06-01T05:38:07.966Z,13.20
2017-06-01T05:40:34.692Z,13.20
2017-06-01T05:43:01.457Z,13.20
2017-06-01T05:45:28.181Z,13.30
2017-06-01T05:47:54.906Z,13.40
2017-06-01T05:50:21.668Z,13.40
2017-06-01T05:52:48.350Z,13.60
2017-06-01T05:55:15.038Z,13.60
2017-06-01T05:57:41.763Z,13.60
2017-06-01T06:00:08.489Z,13.70
2017-06-01T06:02:35.194Z,13.70
2017-06-01T06:05:01.926Z,13.80
2017-06-01T06:07:28.666Z,14.00
2017-06-01T06:09:55.368Z,14.00
2017-06-01T06:12:22.088Z,14.00
2017-06-01T06:14:48.778Z,14.00
2017-06-01T06:17:15.506Z,14.00
2017-06-01T06:19:42.224Z,13.80
2017-06-01T06:22:08.901Z,13.80
2017-06-01T06:24:35.628Z,13.90
2017-06-01T06:27:02.373Z,14.00
2017-06-01T06:29:29.141Z,13.90
2017-06-01T06:31:55.829Z,14.00
2017-06-01T06:34:22.553Z,14.10
2017-06-01T06:36:49.283Z,14.30
2017-06-01T06:39:15.982Z,14.30
2017-06-01T06:41:42.717Z,14.30
2017-06-01T06:44:09.443Z,14.20
2017-06-01T06:46:36.161Z,14.10
2017-06-01T06:49:02.949Z,14.20
2017-06-01T06:51:29.721Z,14.20
2017-06-01T06:53:56.453Z,14.10
2017-06-01T06:56:23.134Z,14.10
2017-06-01T06:58:49.845Z,14.10
2017-06-01T07:01:16.538Z,14.10
2017-06-01T07:03:43.255Z,14.10
2017-06-01T07:06:09.950Z,14.20
2017-06-01T07:08:36.717Z,14.20
2017-06-01T07:11:03.409Z,14.20
2017-06-01T07:13:30.142Z,14.30
2017-06-01T07:15:56.829Z,14.30
2017-06-01T07:18:23.553Z,14.20
2017-06-01T07:20:50.285Z,14.20
2017-06-01T07:23:16.983Z,14.30
2017-06-01T07:25:43.678Z,14.40
2017-06-01T07:28:10.392Z,14.40
2017-06-01T07:30:37.077Z,14.30
2017-06-01T07:33:03.829Z,14.40
2017-06-01T07:35:29.821Z,14.40
2017-06-01T07:37:56.551Z,14.50
2017-06-01T07:40:23.237Z,14.60
2017-06-01T07:42:49.917Z,14.60
2017-06-01T07:45:16.633Z,14.70
2017-06-01T07:47:43.317Z,14.70
2017-06-01T07:50:10.041Z,14.90
2017-06-01T07:52:36.725Z,15.00
2017-06-01T07:55:03.462Z,15.00
2017-06-01T07:57:30.173Z,15.10
2017-06-01T07:59:56.892Z,15.10
2017-06-01T08:02:23.582Z,15.10
2017-06-01T08:04:50.384Z,15.20
2017-06-01T08:07:17.094Z,15.20
2017-06-01T08:09:43.818Z,15.30
2017-06-01T08:12:10.501Z,15.30
2017-06-01T08:14:37.198Z,15.40
2017-06-01T08:17:03.916Z,15.40
2017-06-01T08:19:29.949Z,15.40
2017-06-01T08:21:56.646Z,15.50
2017-06-01T08:24:23.373Z,15.60
2017-06-01T08:26:50.091Z,15.60
2017-06-01T08:29:16.786Z,15.60
2017-06-01T08:31:43.505Z,15.70
2017-06-01T08:34:10.270Z,15.80
2017-06-01T08:36:36.950Z,15.90
2017-06-01T08:39:03.690Z,15.90
2017-06-01T08:41:30.379Z,16.10
2017-06-01T08:43:57.053Z,16.10
2017-06-01T08:46:23.773Z,16.10
2017-06-01T08:48:50.456Z,16.20
2017-06-01T08:51:17.149Z,16.20
2017-06-01T08:53:43.866Z,16.40
2017-06-01T08:56:10.557Z,16.40
2017-06-01T08:58:37.294Z,16.50
2017-06-01T09:01:04.027Z,16.50
2017-06-01T09:03:30.733Z,16.50
2017-06-01T09:05:57.456Z,16.60
2017-06-01T09:08:24.144Z,16.70
2017-06-01T09:10:50.834Z,16.70
2017-06-01T09:13:17.589Z,16.70
2017-06-01T09:15:44.268Z,16.70
2017-06-01T09:18:10.949Z,16.80
2017-06-01T09:20:37.705Z,16.80
2017-06-01T09:23:04.453Z,16.80
2017-06-01T09:25:31.156Z,17.00
2017-06-01T09:27:57.888Z,17.20
2017-06-01T09:30:24.578Z,17.30
2017-06-01T09:32:51.293Z,17.20
2017-06-01T09:35:18.001Z,17.30
2017-06-01T09:37:44.730Z,17.50
2017-06-01T09:40:11.409Z,17.60
2017-06-01T09:42:38.092Z,17.60
2017-06-01T09:45:04.808Z,17.60
2017-06-01T09:47:31.502Z,17.70
2017-06-01T09:49:58.232Z,17.80
2017-06-01T09:52:24.909Z,17.80
2017-06-01T09:54:51.636Z,17.90
2017-06-01T09:57:18.342Z,18.10
2017-06-01T09:59:45.025Z,18.00
2017-06-01T10:02:11.749Z,18.10
2017-06-01T10:04:38.465Z,18.00
2017-06-01T10:07:05.144Z,18.00
2017-06-01T10:09:31.881Z,18.00
2017-06-01T10:11:58.616Z,18.10
2017-06-01T10:14:25.305Z,18.00
2017-06-01T10:16:52.034Z,18.10
2017-06-01T10:19:18.725Z,18.20
2017-06-01T10:21:45.426Z,18.10
2017-06-01T10:24:12.149Z,18.10
2017-06-01T10:26:38.886Z,18.20
2017-06-01T10:29:05.571Z,18.40
2017-06-01T10:31:32.277Z,18.40
2017-06-01T10:33:58.996Z,18.40
2017-06-01T10:36:25.716Z,18.40
2017-06-01T10:38:52.444Z,18.40
2017-06-01T10:41:19.153Z,18.60
2017-06-01T10:43:45.840Z,18.60
2017-06-01T10:46:12.560Z,18.60
2017-06-01T10:48:39.261Z,18.70
2017-06-01T10:51:05.965Z,18.80
2017-06-01T10:53:32.742Z,18.80
2017-06-01T10:55:59.445Z,19.00
2017-06-01T10:58:26.132Z,19.10
2017-06-01T11:00:53.269Z,19.10
2017-06-01T11:03:19.958Z,19.10
2017-06-01T11:05:46.673Z,19.20
2017-06-01T11:08:13.354Z,19.30
2017-06-01T11:10:40.083Z,19.40
2017-06-01T11:13:06.769Z,19.50
2017-06-01T11:15:33.456Z,19.60
2017-06-01T11:18:00.205Z,19.60
2017-06-01T11:20:26.888Z,19.50
2017-06-01T11:22:53.605Z,19.60
2017-06-01T11:25:20.296Z,19.60
2017-06-01T11:27:46.981Z,19.70
2017-06-01T11:30:13.702Z,19.70
2017-06-01T11:32:40.461Z,19.80
2017-06-01T11:35:07.250Z,19.80
2017-06-01T11:37:33.993Z,19.80
2017-06-01T11:40:01.810Z,19.90
2017-06-01T11:42:28.513Z,19.90
2017-06-01T11:44:55.201Z,19.90
2017-06-01T11:47:21.918Z,19.90
2017-06-01T11:49:48.630Z,20.00
2017-06-01T11:52:15.565Z,20.10
2017-06-01T11:54:42.289Z,20.20
2017-06-01T11:57:08.969Z,20.30
2017-06-01T11:59:35.709Z,20.30
2017-06-01T12:02:02.409Z,20.40
2017-06-01T12:04:29.140Z,20.50
2017-06-01T12:06:55.857Z,20.60
2017-06-01T12:09:22.537Z,20.80
2017-06-01T12:11:49.264Z,20.80
2017-06-01T12:14:15.949Z,21.10
2017-06-01T12:16:42.620Z,21.40
2017-06-01T12:19:09.336Z,21.70
2017-06-01T12:21:36.018Z,22.40
2017-06-01T12:24:02.749Z,23.60
2017-06-01T12:26:29.437Z,24.00
2017-06-01T12:28:56.216Z,24.80
2017-06-01T12:31:22.900Z,25.60
2017-06-01T12:33:49.685Z,27.00
2017-06-01T12:36:16.405Z,27.10
2017-06-01T12:38:43.145Z,27.80
2017-06-01T12:41:09.896Z,27.90
2017-06-01T12:43:36.589Z,28.00
2017-06-01T12:46:03.274Z,28.20
2017-06-01T12:48:30.021Z,28.50
2017-06-01T12:50:56.706Z,29.70
2017-06-01T12:53:23.433Z,29.50
2017-06-01T12:55:50.212Z,29.40
2017-06-01T12:58:16.941Z,29.30
2017-06-01T13:00:43.625Z,29.70
2017-06-01T13:03:10.313Z,29.70
2017-06-01T13:05:37.073Z,29.70
2017-06-01T13:08:03.779Z,29.00
2017-06-01T13:10:30.605Z,29.50
2017-06-01T13:12:57.330Z,29.70
2017-06-01T13:15:24.229Z,29.60
2017-06-01T13:17:50.948Z,30.70
2017-06-01T13:20:17.650Z,29.80
2017-06-01T13:22:44.394Z,28.70
2017-06-01T13:25:11.086Z,27.50
2017-06-01T13:27:37.772Z,29.00
2017-06-01T13:30:04.494Z,30.20
2017-06-01T13:32:31.210Z,30.40
2017-06-01T13:34:58.002Z,30.70
2017-06-01T13:37:24.724Z,30.20
2017-06-01T13:39:51.433Z,30.00
2017-06-01T13:42:18.157Z,30.10
2017-06-01T13:44:44.843Z,29.10
2017-06-01T13:47:11.525Z,28.20
2017-06-01T13:49:38.297Z,29.50
2017-06-01T13:52:04.996Z,29.40
2017-06-01T13:54:31.734Z,29.50
2017-06-01T13:56:58.452Z,29.80
2017-06-01T13:59:25.206Z,31.00
2017-06-01T14:01:51.897Z,30.70
2017-06-01T14:04:18.582Z,31.60
2017-06-01T14:06:45.306Z,31.20
2017-06-01T14:09:11.994Z,31.20
2017-06-01T14:11:38.713Z,31.40
2017-06-01T14:14:05.443Z,30.40
2017-06-01T14:16:32.194Z,31.30
2017-06-01T14:18:58.941Z,31.00
2017-06-01T14:21:25.625Z,32.10
2017-06-01T14:23:52.355Z,31.70
2017-06-01T14:26:19.050Z,30.50
2017-06-01T14:28:45.743Z,31.20
2017-06-01T14:31:12.502Z,31.00
2017-06-01T14:33:39.185Z,29.50
2017-06-01T14:36:05.901Z,28.10
2017-06-01T14:38:32.657Z,29.60
2017-06-01T14:40:59.348Z,30.20
2017-06-01T14:43:26.415Z,30.10
2017-06-01T14:45:53.137Z,30.80
2017-06-01T14:48:19.892Z,30.80
2017-06-01T14:50:46.579Z,29.30
2017-06-01T14:53:13.265Z,29.30
2017-06-01T14:55:39.986Z,27.80
2017-06-01T14:58:06.681Z,29.00
2017-06-01T15:00:33.462Z,30.10
2017-06-01T15:03:00.165Z,30.00
2017-06-01T15:05:26.901Z,29.70
2017-06-01T15:07:53.626Z,28.50
2017-06-01T15:10:20.358Z,28.30
2017-06-01T15:12:47.033Z,29.00
2017-06-01T15:15:14.422Z,28.70
2017-06-01T15:17:41.146Z,28.10
2017-06-01T15:20:07.861Z,27.90
2017-06-01T15:22:34.596Z,27.70
2017-06-01T15:25:01.399Z,28.20
2017-06-01T15:27:28.129Z,28.20
2017-06-01T15:29:54.845Z,28.00
2017-06-01T15:32:21.524Z,27.20
2017-06-01T15:34:48.246Z,26.70
2017-06-01T15:37:14.957Z,26.50
2017-06-01T15:39:41.637Z,26.30
2017-06-01T15:42:08.362Z,26.30
2017-06-01T15:44:35.130Z,26.30
2017-06-01T15:47:01.861Z,25.90
2017-06-01T15:49:28.580Z,25.70
2017-06-01T15:51:55.317Z,25.40
2017-06-01T15:54:22.033Z,25.30
2017-06-01T15:56:48.756Z,25.20
2017-06-01T15:59:15.436Z,24.90
2017-06-01T16:01:42.169Z,24.90
2017-06-01T16:04:08.889Z,24.80
2017-06-01T16:06:35.609Z,24.60
2017-06-01T16:09:02.333Z,24.50
2017-06-01T16:11:29.017Z,24.70
2017-06-01T16:13:55.743Z,24.70
2017-06-01T16:16:22.455Z,24.70
2017-06-01T16:18:49.208Z,24.60
2017-06-01T16:21:15.901Z,24.50
2017-06-01T16:23:42.590Z,24.70
2017-06-01T16:26:09.309Z,24.80
2017-06-01T16:28:36.004Z,24.50
2017-06-01T16:31:02.722Z,24.50
2017-06-01T16:33:29.457Z,24.40
2017-06-01T16:35:56.145Z,24.30
2017-06-01T16:38:22.881Z,24.30
2017-06-01T16:40:49.637Z,24.30
2017-06-01T16:43:16.330Z,24.10
2017-06-01T16:45:43.060Z,23.70
2017-06-01T16:48:09.744Z,23.30
2017-06-01T16:50:36.441Z,23.50
2017-06-01T16:53:03.161Z,23.60
2017-06-01T16:55:29.845Z,23.60
2017-06-01T16:57:56.594Z,23.60
2017-06-01T17:00:23.286Z,23.50
2017-06-01T17:02:50.098Z,23.50
2017-06-01T17:05:16.813Z,23.40
2017-06-01T17:07:43.501Z,23.50
2017-06-01T17:10:10.247Z,23.60
2017-06-01T17:12:36.949Z,23.50
2017-06-01T17:15:03.639Z,23.30
2017-06-01T17:17:30.385Z,23.20
2017-06-01T17:19:57.177Z,23.10
2017-06-01T17:22:23.945Z,23.20
2017-06-01T17:24:50.624Z,23.20
2017-06-01T17:27:17.315Z,23.20
2017-06-01T17:29:44.040Z,23.00
2017-06-01T17:32:10.721Z,23.00
2017-06-01T17:34:37.453Z,23.00
2017-06-01T17:37:04.164Z,22.90
2017-06-01T17:39:30.922Z,22.70
2017-06-01T17:41:57.612Z,22.70
2017-06-01T17:44:24.333Z,22.60
2017-06-01T17:46:51.061Z,22.50
2017-06-01T17:49:18.789Z,22.70
2017-06-01T17:51:45.849Z,22.60
2017-06-01T17:54:12.550Z,22.70
2017-06-01T17:56:39.248Z,22.70
2017-06-01T17:59:06.598Z,22.70
2017-06-01T18:01:33.349Z,22.60
2017-06-01T18:04:03.457Z,22.50
2017-06-01T18:06:34.621Z,22.40
2017-06-01T18:09:01.365Z,22.30
2017-06-01T18:11:30.015Z,22.20
2017-06-01T18:13:56.809Z,22.20
2017-06-01T18:16:23.537Z,22.20
2017-06-01T18:18:50.266Z,22.10
2017-06-01T18:21:16.981Z,22.00
2017-06-01T18:23:43.705Z,21.90
2017-06-01T18:26:10.499Z,21.90
2017-06-01T18:28:37.317Z,22.00
2017-06-01T18:31:04.018Z,21.90
2017-06-01T18:33:30.757Z,21.90
2017-06-01T18:35:57.459Z,21.80
2017-06-01T18:38:24.213Z,21.80
2017-06-01T18:40:50.946Z,21.70
2017-06-01T18:43:17.665Z,21.60
2017-06-01T18:45:44.345Z,21.60
2017-06-01T18:48:11.101Z,21.50
2017-06-01T18:50:38.130Z,21.50
2017-06-01T18:53:04.859Z,21.50
2017-06-01T18:55:31.583Z,21.50
2017-06-01T18:57:58.289Z,21.50
2017-06-01T19:00:25.000Z,21.40
2017-06-01T19:02:51.693Z,21.40
2017-06-01T19:05:18.409Z,21.30
2017-06-01T19:07:45.097Z,21.20
2017-06-01T19:10:11.845Z,21.00
2017-06-01T19:12:38.548Z,20.70
2017-06-01T19:15:05.270Z,20.70
2017-06-01T19:17:31.988Z,20.80
2017-06-01T19:19:58.718Z,20.80
2017-06-01T19:22:25.409Z,20.80
2017-06-01T19:24:52.132Z,20.70
2017-06-01T19:27:18.942Z,20.60
2017-06-01T19:29:45.638Z,20.10
2017-06-01T19:32:12.324Z,19.70
2017-06-01T19:34:39.068Z,19.90
2017-06-01T19:37:05.839Z,19.80
2017-06-01T19:39:32.657Z,19.70
2017-06-01T19:41:59.350Z,19.50
2017-06-01T19:44:26.082Z,19.30
2017-06-01T19:46:52.765Z,19.20
2017-06-01T19:49:19.440Z,19.30
2017-06-01T19:51:46.165Z,19.40
2017-06-01T19:54:12.840Z,19.30
2017-06-01T19:56:40.637Z,19.10
2017-06-01T19:59:07.357Z,19.00
2017-06-01T20:01:34.055Z,19.00
2017-06-01T20:04:00.769Z,18.80
2017-06-01T20:06:27.445Z,18.70
2017-06-01T20:08:54.152Z,18.70
2017-06-01T20:11:20.842Z,18.70
2017-06-01T20:13:47.569Z,18.50
2017-06-01T20:16:14.254Z,18.30
2017-06-01T20:18:40.973Z,18.20
2017-06-01T20:21:07.702Z,17.90
2017-06-01T20:23:34.390Z,17.70
2017-06-01T20:26:01.126Z,17.60
2017-06-01T20:28:27.805Z,17.70
2017-06-01T20:30:54.489Z,17.80
2017-06-01T20:33:21.228Z,17.90
2017-06-01T20:35:47.914Z,17.90
2017-06-01T20:38:14.625Z,17.90
2017-06-01T20:40:41.349Z,17.80
2017-06-01T20:43:08.073Z,17.80
2017-06-01T20:45:34.779Z,17.40
2017-06-01T20:48:01.515Z,17.10
2017-06-01T20:50:28.200Z,16.90
2017-06-01T20:52:54.881Z,16.80
2017-06-01T20:55:21.597Z,16.90
2017-06-01T20:57:48.281Z,16.70
2017-06-01T21:00:15.056Z,16.50
2017-06-01T21:02:41.732Z,16.50
2017-06-01T21:05:08.473Z,16.70
2017-06-01T21:07:35.161Z,16.80
2017-06-01T21:10:01.845Z,16.80
2017-06-01T21:12:28.562Z,16.80
2017-06-01T21:14:55.278Z,16.80
2017-06-01T21:17:21.961Z,16.90
2017-06-01T21:19:48.685Z,16.50
2017-06-01T21:22:15.364Z,16.50
2017-06-01T21:24:42.036Z,16.30
2017-06-01T21:27:08.788Z,16.50
2017-06-01T21:29:35.469Z,16.50
2017-06-01T21:32:02.205Z,16.40
2017-06-01T21:34:28.900Z,16.40
2017-06-01T21:36:55.625Z,16.30
2017-06-01T21:39:22.350Z,16.30
2017-06-01T21:41:49.096Z,16.20
2017-06-01T21:44:15.789Z,16.20
2017-06-01T21:46:42.474Z,16.20
2017-06-01T21:49:09.191Z,16.10
2017-06-01T21:51:35.891Z,15.80
2017-06-01T21:54:02.578Z,15.80
2017-06-01T21:56:29.345Z,15.70
2017-06-01T21:58:56.070Z,15.80
2017-06-01T22:01:22.793Z,15.80
2017-06-01T22:03:49.474Z,15.80
2017-06-01T22:06:16.186Z,15.70
2017-06-01T22:08:42.979Z,15.60
2017-06-01T22:11:09.669Z,15.50
2017-06-01T22:13:36.386Z,15.40
2017-06-01T22:16:03.069Z,15.10
2017-06-01T22:18:29.785Z,15.10
2017-06-01T22:20:56.499Z,15.10
2017-06-01T22:23:23.188Z,15.30
2017-06-01T22:25:49.948Z,15.30
2017-06-01T22:28:16.624Z,15.40
2017-06-01T22:30:43.353Z,15.30
2017-06-01T22:33:10.034Z,15.20
2017-06-01T22:35:36.729Z,15.20
2017-06-01T22:38:03.515Z,15.00
2017-06-01T22:40:30.226Z,14.90
2017-06-01T22:42:56.929Z,14.80
2017-06-01T22:45:23.645Z,14.90
2017-06-01T22:47:50.326Z,14.90
2017-06-01T22:50:17.041Z,14.90
2017-06-01T22:52:43.753Z,14.80
2017-06-01T22:55:10.446Z,14.80
2017-06-01T22:57:37.180Z,14.70
2017-06-01T23:00:03.862Z,14.70
2017-06-01T23:02:30.555Z,14.70
2017-06-01T23:04:57.277Z,14.60
2017-06-01T23:07:23.963Z,14.60
2017-06-01T23:09:50.689Z,14.50
2017-06-01T23:12:17.382Z,14.50
2017-06-01T23:14:44.104Z,14.50
2017-06-01T23:17:10.829Z,14.30
2017-06-01T23:19:37.589Z,14.30
2017-06-01T23:22:04.285Z,14.30
2017-06-01T23:24:31.037Z,14.40
2017-06-01T23:27:04.902Z,14.30
2017-06-01T23:29:31.637Z,14.30
2017-06-01T23:31:58.321Z,14.20
2017-06-01T23:34:24.992Z,14.20
2017-06-01T23:36:51.713Z,14.20
2017-06-01T23:39:18.429Z,14.20
2017-06-01T23:41:45.109Z,14.10
2017-06-01T23:44:11.821Z,14.10
2017-06-01T23:46:38.493Z,14.10
2017-06-01T23:49:05.231Z,14.00
2017-06-01T23:51:31.933Z,13.90
2017-06-01T23:53:58.657Z,13.90
2017-06-01T23:56:25.346Z,13.90
2017-06-01T23:58:52.032Z,13.80
